sensor_id;sensor_type;location;lat;lon;timestamp;P1;durP1;ratioP1;P2;durP2;ratioP2
4577;SDS011;2301;47.354;8.528;2023-02-28T00:00:33;7.35;;;3.80;;
4577;SDS011;2301;47.354;8.528;2023-02-28T00:03:01;11.70;;;4.55;;
4577;SDS011;2301;47.354;8.528;2023-02-28T00:05:28;5.40;;;3.85;;
4577;SDS011;2301;47.354;8.528;2023-02-28T00:07:56;6.18;;;3.45;;
4577;SDS011;2301;47.354;8.528;2023-02-28T00:10:24;5.63;;;3.58;;
4577;SDS011;2301;47.354;8.528;2023-02-28T00:12:55;6.03;;;3.42;;
4577;SDS011;2301;47.354;8.528;2023-02-28T00:15:25;5.25;;;3.50;;
4577;SDS011;2301;47.354;8.528;2023-02-28T00:17:52;6.05;;;3.35;;
4577;SDS011;2301;47.354;8.528;2023-02-28T00:20:19;5.60;;;3.30;;
4577;SDS011;2301;47.354;8.528;2023-02-28T00:22:47;8.10;;;4.15;;
4577;SDS011;2301;47.354;8.528;2023-02-28T00:25:16;5.72;;;3.08;;
4577;SDS011;2301;47.354;8.528;2023-02-28T00:27:44;6.22;;;3.45;;
4577;SDS011;2301;47.354;8.528;2023-02-28T00:30:15;3.80;;;3.08;;
4577;SDS011;2301;47.354;8.528;2023-02-28T00:32:43;5.28;;;3.20;;
4577;SDS011;2301;47.354;8.528;2023-02-28T00:35:11;7.63;;;3.65;;
4577;SDS011;2301;47.354;8.528;2023-02-28T00:37:38;5.10;;;2.80;;
4577;SDS011;2301;47.354;8.528;2023-02-28T00:40:06;9.57;;;3.42;;
4577;SDS011;2301;47.354;8.528;2023-02-28T00:42:34;7.20;;;4.00;;
4577;SDS011;2301;47.354;8.528;2023-02-28T00:45:02;7.28;;;3.95;;
4577;SDS011;2301;47.354;8.528;2023-02-28T00:47:31;6.95;;;3.38;;
4577;SDS011;2301;47.354;8.528;2023-02-28T00:49:59;7.22;;;4.20;;
4577;SDS011;2301;47.354;8.528;2023-02-28T00:52:26;5.53;;;3.88;;
4577;SDS011;2301;47.354;8.528;2023-02-28T00:54:54;4.72;;;3.13;;
4577;SDS011;2301;47.354;8.528;2023-02-28T00:57:21;6.93;;;3.78;;
4577;SDS011;2301;47.354;8.528;2023-02-28T00:59:48;7.32;;;3.88;;
4577;SDS011;2301;47.354;8.528;2023-02-28T01:02:15;7.18;;;3.95;;
4577;SDS011;2301;47.354;8.528;2023-02-28T01:04:44;5.72;;;3.30;;
4577;SDS011;2301;47.354;8.528;2023-02-28T01:07:12;7.38;;;3.78;;
4577;SDS011;2301;47.354;8.528;2023-02-28T01:09:39;6.72;;;4.20;;
4577;SDS011;2301;47.354;8.528;2023-02-28T01:12:07;8.55;;;3.80;;
4577;SDS011;2301;47.354;8.528;2023-02-28T01:14:34;7.47;;;3.35;;
4577;SDS011;2301;47.354;8.528;2023-02-28T01:17:02;5.60;;;3.72;;
4577;SDS011;2301;47.354;8.528;2023-02-28T01:19:29;6.30;;;3.90;;
4577;SDS011;2301;47.354;8.528;2023-02-28T01:21:57;7.13;;;3.75;;
4577;SDS011;2301;47.354;8.528;2023-02-28T01:24:27;5.07;;;3.50;;
4577;SDS011;2301;47.354;8.528;2023-02-28T01:26:54;8.80;;;4.50;;
4577;SDS011;2301;47.354;8.528;2023-02-28T01:29:21;7.22;;;3.60;;
4577;SDS011;2301;47.354;8.528;2023-02-28T01:31:47;6.03;;;3.45;;
4577;SDS011;2301;47.354;8.528;2023-02-28T01:34:14;7.03;;;3.78;;
4577;SDS011;2301;47.354;8.528;2023-02-28T01:36:44;5.15;;;3.70;;
4577;SDS011;2301;47.354;8.528;2023-02-28T01:39:12;6.55;;;3.50;;
4577;SDS011;2301;47.354;8.528;2023-02-28T01:41:42;6.40;;;3.25;;
4577;SDS011;2301;47.354;8.528;2023-02-28T01:47:09;5.00;;;3.30;;
4577;SDS011;2301;47.354;8.528;2023-02-28T01:49:36;8.38;;;3.90;;
4577;SDS011;2301;47.354;8.528;2023-02-28T01:52:03;7.07;;;3.58;;
4577;SDS011;2301;47.354;8.528;2023-02-28T01:54:33;5.53;;;3.75;;
4577;SDS011;2301;47.354;8.528;2023-02-28T01:57:01;6.82;;;4.30;;
4577;SDS011;2301;47.354;8.528;2023-02-28T01:59:32;17.60;;;4.25;;
4577;SDS011;2301;47.354;8.528;2023-02-28T02:02:05;5.30;;;3.90;;
4577;SDS011;2301;47.354;8.528;2023-02-28T02:04:34;7.40;;;4.25;;
4577;SDS011;2301;47.354;8.528;2023-02-28T02:07:05;5.80;;;3.78;;
4577;SDS011;2301;47.354;8.528;2023-02-28T02:09:34;7.05;;;4.00;;
4577;SDS011;2301;47.354;8.528;2023-02-28T02:12:01;13.27;;;3.80;;
4577;SDS011;2301;47.354;8.528;2023-02-28T02:14:37;5.97;;;3.80;;
4577;SDS011;2301;47.354;8.528;2023-02-28T02:17:19;6.80;;;3.58;;
4577;SDS011;2301;47.354;8.528;2023-02-28T02:20:11;6.93;;;4.07;;
4577;SDS011;2301;47.354;8.528;2023-02-28T02:25:50;6.65;;;3.00;;
4577;SDS011;2301;47.354;8.528;2023-02-28T02:28:40;8.13;;;4.13;;
4577;SDS011;2301;47.354;8.528;2023-02-28T02:37:24;7.05;;;3.80;;
4577;SDS011;2301;47.354;8.528;2023-02-28T02:39:59;5.05;;;3.65;;
4577;SDS011;2301;47.354;8.528;2023-02-28T02:42:32;5.75;;;3.58;;
4577;SDS011;2301;47.354;8.528;2023-02-28T02:45:08;5.97;;;4.13;;
4577;SDS011;2301;47.354;8.528;2023-02-28T02:47:38;8.98;;;4.60;;
4577;SDS011;2301;47.354;8.528;2023-02-28T02:50:10;8.05;;;3.95;;
4577;SDS011;2301;47.354;8.528;2023-02-28T02:52:40;5.60;;;3.70;;
4577;SDS011;2301;47.354;8.528;2023-02-28T02:55:11;7.30;;;4.28;;
4577;SDS011;2301;47.354;8.528;2023-02-28T02:57:42;11.68;;;4.45;;
4577;SDS011;2301;47.354;8.528;2023-02-28T03:00:13;6.53;;;3.50;;
4577;SDS011;2301;47.354;8.528;2023-02-28T03:02:43;5.30;;;3.83;;
4577;SDS011;2301;47.354;8.528;2023-02-28T03:05:15;7.22;;;3.90;;
4577;SDS011;2301;47.354;8.528;2023-02-28T03:07:45;7.45;;;3.83;;
4577;SDS011;2301;47.354;8.528;2023-02-28T03:10:28;5.03;;;3.35;;
4577;SDS011;2301;47.354;8.528;2023-02-28T03:13:00;4.97;;;3.60;;
4577;SDS011;2301;47.354;8.528;2023-02-28T03:15:38;5.95;;;3.50;;
4577;SDS011;2301;47.354;8.528;2023-02-28T03:18:17;6.05;;;4.38;;
4577;SDS011;2301;47.354;8.528;2023-02-28T03:20:51;6.03;;;3.70;;
4577;SDS011;2301;47.354;8.528;2023-02-28T03:23:29;11.32;;;3.95;;
4577;SDS011;2301;47.354;8.528;2023-02-28T03:26:05;5.57;;;4.20;;
4577;SDS011;2301;47.354;8.528;2023-02-28T03:28:39;10.48;;;3.92;;
4577;SDS011;2301;47.354;8.528;2023-02-28T03:31:14;6.40;;;3.72;;
4577;SDS011;2301;47.354;8.528;2023-02-28T03:33:46;6.10;;;3.80;;
4577;SDS011;2301;47.354;8.528;2023-02-28T03:36:22;7.13;;;3.80;;
4577;SDS011;2301;47.354;8.528;2023-02-28T03:38:53;4.20;;;3.33;;
4577;SDS011;2301;47.354;8.528;2023-02-28T03:41:27;5.65;;;3.90;;
4577;SDS011;2301;47.354;8.528;2023-02-28T03:43:59;7.22;;;3.80;;
4577;SDS011;2301;47.354;8.528;2023-02-28T03:46:32;5.65;;;3.80;;
4577;SDS011;2301;47.354;8.528;2023-02-28T03:49:03;6.72;;;4.05;;
4577;SDS011;2301;47.354;8.528;2023-02-28T03:51:39;6.97;;;3.95;;
4577;SDS011;2301;47.354;8.528;2023-02-28T03:54:09;5.38;;;3.30;;
4577;SDS011;2301;47.354;8.528;2023-02-28T03:56:42;5.40;;;3.92;;
4577;SDS011;2301;47.354;8.528;2023-02-28T03:59:14;6.43;;;3.83;;
4577;SDS011;2301;47.354;8.528;2023-02-28T04:01:43;7.35;;;4.10;;
4577;SDS011;2301;47.354;8.528;2023-02-28T04:04:11;8.30;;;3.65;;
4577;SDS011;2301;47.354;8.528;2023-02-28T04:06:42;5.20;;;3.60;;
4577;SDS011;2301;47.354;8.528;2023-02-28T04:09:10;5.43;;;3.33;;
4577;SDS011;2301;47.354;8.528;2023-02-28T04:11:39;7.18;;;4.07;;
4577;SDS011;2301;47.354;8.528;2023-02-28T04:14:08;10.52;;;3.80;;
4577;SDS011;2301;47.354;8.528;2023-02-28T04:16:36;7.22;;;4.40;;
4577;SDS011;2301;47.354;8.528;2023-02-28T04:19:06;6.13;;;3.58;;
4577;SDS011;2301;47.354;8.528;2023-02-28T04:21:35;5.57;;;3.70;;
4577;SDS011;2301;47.354;8.528;2023-02-28T04:24:05;6.00;;;3.22;;
4577;SDS011;2301;47.354;8.528;2023-02-28T04:26:34;5.10;;;3.70;;
4577;SDS011;2301;47.354;8.528;2023-02-28T04:29:03;5.50;;;3.33;;
4577;SDS011;2301;47.354;8.528;2023-02-28T04:31:32;4.63;;;3.13;;
4577;SDS011;2301;47.354;8.528;2023-02-28T04:33:59;5.20;;;3.35;;
4577;SDS011;2301;47.354;8.528;2023-02-28T04:36:26;4.90;;;3.25;;
4577;SDS011;2301;47.354;8.528;2023-02-28T04:38:53;5.60;;;3.75;;
4577;SDS011;2301;47.354;8.528;2023-02-28T04:41:22;8.63;;;3.80;;
4577;SDS011;2301;47.354;8.528;2023-02-28T04:43:50;7.07;;;4.15;;
4577;SDS011;2301;47.354;8.528;2023-02-28T04:46:17;9.07;;;3.80;;
4577;SDS011;2301;47.354;8.528;2023-02-28T04:48:45;5.60;;;3.53;;
4577;SDS011;2301;47.354;8.528;2023-02-28T04:51:14;6.28;;;3.75;;
4577;SDS011;2301;47.354;8.528;2023-02-28T04:53:43;7.30;;;3.33;;
4577;SDS011;2301;47.354;8.528;2023-02-28T04:56:10;5.57;;;3.60;;
4577;SDS011;2301;47.354;8.528;2023-02-28T04:58:40;5.55;;;3.30;;
4577;SDS011;2301;47.354;8.528;2023-02-28T05:01:15;6.68;;;3.78;;
4577;SDS011;2301;47.354;8.528;2023-02-28T05:03:44;8.05;;;3.70;;
4577;SDS011;2301;47.354;8.528;2023-02-28T05:06:12;5.18;;;3.88;;
4577;SDS011;2301;47.354;8.528;2023-02-28T05:08:39;6.78;;;3.22;;
4577;SDS011;2301;47.354;8.528;2023-02-28T05:11:07;5.28;;;3.65;;
4577;SDS011;2301;47.354;8.528;2023-02-28T05:13:41;6.75;;;3.80;;
4577;SDS011;2301;47.354;8.528;2023-02-28T05:16:08;6.13;;;3.47;;
4577;SDS011;2301;47.354;8.528;2023-02-28T05:18:35;5.70;;;3.35;;
4577;SDS011;2301;47.354;8.528;2023-02-28T05:21:02;6.43;;;3.70;;
4577;SDS011;2301;47.354;8.528;2023-02-28T05:23:29;5.78;;;3.45;;
4577;SDS011;2301;47.354;8.528;2023-02-28T05:25:56;5.40;;;3.20;;
4577;SDS011;2301;47.354;8.528;2023-02-28T05:28:24;8.68;;;4.05;;
4577;SDS011;2301;47.354;8.528;2023-02-28T05:30:52;6.60;;;3.60;;
4577;SDS011;2301;47.354;8.528;2023-02-28T05:33:19;6.72;;;3.53;;
4577;SDS011;2301;47.354;8.528;2023-02-28T05:35:46;7.32;;;3.28;;
4577;SDS011;2301;47.354;8.528;2023-02-28T05:38:13;5.80;;;3.92;;
4577;SDS011;2301;47.354;8.528;2023-02-28T05:40:40;5.70;;;3.55;;
4577;SDS011;2301;47.354;8.528;2023-02-28T05:43:09;4.78;;;3.42;;
4577;SDS011;2301;47.354;8.528;2023-02-28T05:45:37;6.63;;;4.40;;
4577;SDS011;2301;47.354;8.528;2023-02-28T05:48:06;5.38;;;3.47;;
4577;SDS011;2301;47.354;8.528;2023-02-28T05:50:34;6.05;;;4.20;;
4577;SDS011;2301;47.354;8.528;2023-02-28T05:53:01;5.32;;;3.80;;
4577;SDS011;2301;47.354;8.528;2023-02-28T05:55:28;5.43;;;3.60;;
4577;SDS011;2301;47.354;8.528;2023-02-28T05:57:55;5.00;;;3.65;;
4577;SDS011;2301;47.354;8.528;2023-02-28T06:00:22;4.40;;;3.38;;
4577;SDS011;2301;47.354;8.528;2023-02-28T06:02:50;5.53;;;3.40;;
4577;SDS011;2301;47.354;8.528;2023-02-28T06:05:22;8.80;;;3.60;;
4577;SDS011;2301;47.354;8.528;2023-02-28T06:07:50;8.52;;;5.30;;
4577;SDS011;2301;47.354;8.528;2023-02-28T06:10:17;7.20;;;4.80;;
4577;SDS011;2301;47.354;8.528;2023-02-28T06:12:44;6.93;;;5.00;;
4577;SDS011;2301;47.354;8.528;2023-02-28T06:15:12;8.20;;;5.40;;
4577;SDS011;2301;47.354;8.528;2023-02-28T06:17:40;9.30;;;5.70;;
4577;SDS011;2301;47.354;8.528;2023-02-28T06:20:08;6.93;;;4.85;;
4577;SDS011;2301;47.354;8.528;2023-02-28T06:22:39;11.07;;;5.82;;
4577;SDS011;2301;47.354;8.528;2023-02-28T06:25:06;7.80;;;5.25;;
4577;SDS011;2301;47.354;8.528;2023-02-28T06:27:34;10.50;;;5.65;;
4577;SDS011;2301;47.354;8.528;2023-02-28T06:30:01;7.25;;;5.75;;
4577;SDS011;2301;47.354;8.528;2023-02-28T06:32:28;9.32;;;5.35;;
4577;SDS011;2301;47.354;8.528;2023-02-28T06:34:55;9.73;;;5.60;;
4577;SDS011;2301;47.354;8.528;2023-02-28T06:37:25;9.98;;;5.63;;
4577;SDS011;2301;47.354;8.528;2023-02-28T06:39:54;8.88;;;5.53;;
4577;SDS011;2301;47.354;8.528;2023-02-28T06:42:22;7.70;;;5.28;;
4577;SDS011;2301;47.354;8.528;2023-02-28T06:44:53;11.95;;;5.55;;
4577;SDS011;2301;47.354;8.528;2023-02-28T06:47:21;8.90;;;5.32;;
4577;SDS011;2301;47.354;8.528;2023-02-28T06:49:48;7.60;;;5.28;;
4577;SDS011;2301;47.354;8.528;2023-02-28T06:52:16;7.70;;;6.07;;
4577;SDS011;2301;47.354;8.528;2023-02-28T06:54:43;7.60;;;5.40;;
4577;SDS011;2301;47.354;8.528;2023-02-28T06:57:11;10.43;;;5.38;;
4577;SDS011;2301;47.354;8.528;2023-02-28T06:59:38;8.45;;;5.32;;
4577;SDS011;2301;47.354;8.528;2023-02-28T07:02:05;15.05;;;6.22;;
4577;SDS011;2301;47.354;8.528;2023-02-28T07:04:32;9.02;;;5.70;;
4577;SDS011;2301;47.354;8.528;2023-02-28T07:06:59;8.70;;;6.03;;
4577;SDS011;2301;47.354;8.528;2023-02-28T07:09:26;7.70;;;5.65;;
4577;SDS011;2301;47.354;8.528;2023-02-28T07:11:55;9.90;;;5.90;;
4577;SDS011;2301;47.354;8.528;2023-02-28T07:14:23;10.10;;;6.80;;
4577;SDS011;2301;47.354;8.528;2023-02-28T07:16:51;11.50;;;5.80;;
4577;SDS011;2301;47.354;8.528;2023-02-28T07:19:18;8.48;;;5.70;;
4577;SDS011;2301;47.354;8.528;2023-02-28T07:21:45;8.07;;;5.45;;
4577;SDS011;2301;47.354;8.528;2023-02-28T07:24:12;14.30;;;6.63;;
4577;SDS011;2301;47.354;8.528;2023-02-28T07:26:40;9.50;;;6.13;;
4577;SDS011;2301;47.354;8.528;2023-02-28T07:29:07;13.02;;;6.25;;
4577;SDS011;2301;47.354;8.528;2023-02-28T07:31:36;12.30;;;6.20;;
4577;SDS011;2301;47.354;8.528;2023-02-28T07:34:03;9.02;;;6.45;;
4577;SDS011;2301;47.354;8.528;2023-02-28T07:36:30;8.27;;;5.95;;
4577;SDS011;2301;47.354;8.528;2023-02-28T07:38:57;10.45;;;6.03;;
4577;SDS011;2301;47.354;8.528;2023-02-28T07:41:24;11.15;;;6.00;;
4577;SDS011;2301;47.354;8.528;2023-02-28T07:43:53;10.77;;;6.30;;
4577;SDS011;2301;47.354;8.528;2023-02-28T07:46:20;8.80;;;6.18;;
4577;SDS011;2301;47.354;8.528;2023-02-28T07:48:49;11.30;;;7.10;;
4577;SDS011;2301;47.354;8.528;2023-02-28T07:51:16;10.25;;;6.78;;
4577;SDS011;2301;47.354;8.528;2023-02-28T07:53:43;14.20;;;6.32;;
4577;SDS011;2301;47.354;8.528;2023-02-28T07:56:10;9.70;;;6.68;;
4577;SDS011;2301;47.354;8.528;2023-02-28T07:58:37;11.85;;;6.50;;
4577;SDS011;2301;47.354;8.528;2023-02-28T08:01:05;8.68;;;6.90;;
4577;SDS011;2301;47.354;8.528;2023-02-28T08:03:32;9.13;;;6.53;;
4577;SDS011;2301;47.354;8.528;2023-02-28T08:06:01;13.23;;;6.55;;
4577;SDS011;2301;47.354;8.528;2023-02-28T08:08:29;9.95;;;6.07;;
4577;SDS011;2301;47.354;8.528;2023-02-28T08:10:57;9.70;;;6.10;;
4577;SDS011;2301;47.354;8.528;2023-02-28T08:13:26;9.95;;;6.55;;
4577;SDS011;2301;47.354;8.528;2023-02-28T08:15:53;10.80;;;6.70;;
4577;SDS011;2301;47.354;8.528;2023-02-28T08:18:20;10.48;;;6.70;;
4577;SDS011;2301;47.354;8.528;2023-02-28T08:20:48;8.52;;;6.60;;
4577;SDS011;2301;47.354;8.528;2023-02-28T08:23:16;11.25;;;7.65;;
4577;SDS011;2301;47.354;8.528;2023-02-28T08:25:43;8.40;;;6.60;;
4577;SDS011;2301;47.354;8.528;2023-02-28T08:28:10;10.13;;;7.10;;
4577;SDS011;2301;47.354;8.528;2023-02-28T08:30:37;14.85;;;6.97;;
4577;SDS011;2301;47.354;8.528;2023-02-28T08:33:06;11.30;;;6.68;;
4577;SDS011;2301;47.354;8.528;2023-02-28T08:35:35;14.30;;;7.03;;
4577;SDS011;2301;47.354;8.528;2023-02-28T08:38:02;12.15;;;7.95;;
4577;SDS011;2301;47.354;8.528;2023-02-28T08:40:30;10.27;;;6.63;;
4577;SDS011;2301;47.354;8.528;2023-02-28T08:42:57;8.40;;;6.78;;
4577;SDS011;2301;47.354;8.528;2023-02-28T08:45:24;9.43;;;6.70;;
4577;SDS011;2301;47.354;8.528;2023-02-28T08:47:53;13.85;;;7.10;;
4577;SDS011;2301;47.354;8.528;2023-02-28T08:50:20;11.05;;;7.10;;
4577;SDS011;2301;47.354;8.528;2023-02-28T08:52:47;10.05;;;6.75;;
4577;SDS011;2301;47.354;8.528;2023-02-28T08:55:14;9.15;;;6.55;;
4577;SDS011;2301;47.354;8.528;2023-02-28T08:57:43;11.32;;;7.40;;
4577;SDS011;2301;47.354;8.528;2023-02-28T09:00:10;8.73;;;6.55;;
4577;SDS011;2301;47.354;8.528;2023-02-28T09:02:38;10.95;;;6.97;;
4577;SDS011;2301;47.354;8.528;2023-02-28T09:05:05;12.10;;;7.38;;
4577;SDS011;2301;47.354;8.528;2023-02-28T09:07:34;9.85;;;7.35;;
4577;SDS011;2301;47.354;8.528;2023-02-28T09:10:01;11.65;;;7.47;;
4577;SDS011;2301;47.354;8.528;2023-02-28T09:12:28;17.25;;;8.15;;
4577;SDS011;2301;47.354;8.528;2023-02-28T09:15:00;16.35;;;7.30;;
4577;SDS011;2301;47.354;8.528;2023-02-28T09:17:27;12.70;;;7.95;;
4577;SDS011;2301;47.354;8.528;2023-02-28T09:19:54;10.68;;;7.57;;
4577;SDS011;2301;47.354;8.528;2023-02-28T09:22:22;12.52;;;7.53;;
4577;SDS011;2301;47.354;8.528;2023-02-28T09:24:48;10.93;;;8.00;;
4577;SDS011;2301;47.354;8.528;2023-02-28T09:27:15;8.73;;;6.55;;
4577;SDS011;2301;47.354;8.528;2023-02-28T09:29:42;11.32;;;8.02;;
4577;SDS011;2301;47.354;8.528;2023-02-28T09:32:11;8.65;;;6.82;;
4577;SDS011;2301;47.354;8.528;2023-02-28T09:34:38;14.32;;;8.93;;
4577;SDS011;2301;47.354;8.528;2023-02-28T09:37:05;13.88;;;8.15;;
4577;SDS011;2301;47.354;8.528;2023-02-28T09:39:32;11.45;;;7.25;;
4577;SDS011;2301;47.354;8.528;2023-02-28T09:41:59;12.02;;;7.05;;
4577;SDS011;2301;47.354;8.528;2023-02-28T09:44:29;12.13;;;8.50;;
4577;SDS011;2301;47.354;8.528;2023-02-28T09:47:00;10.73;;;7.72;;
4577;SDS011;2301;47.354;8.528;2023-02-28T09:49:37;9.73;;;7.90;;
4577;SDS011;2301;47.354;8.528;2023-02-28T09:52:09;13.40;;;8.38;;
4577;SDS011;2301;47.354;8.528;2023-02-28T09:54:38;15.95;;;8.05;;
4577;SDS011;2301;47.354;8.528;2023-02-28T09:57:06;12.20;;;7.93;;
4577;SDS011;2301;47.354;8.528;2023-02-28T09:59:47;13.68;;;8.13;;
4577;SDS011;2301;47.354;8.528;2023-02-28T10:02:41;12.60;;;8.23;;
4577;SDS011;2301;47.354;8.528;2023-02-28T10:05:21;12.25;;;8.15;;
4577;SDS011;2301;47.354;8.528;2023-02-28T10:07:54;11.55;;;7.28;;
4577;SDS011;2301;47.354;8.528;2023-02-28T10:10:32;10.98;;;7.60;;
4577;SDS011;2301;47.354;8.528;2023-02-28T10:13:04;11.55;;;7.70;;
4577;SDS011;2301;47.354;8.528;2023-02-28T10:15:38;12.00;;;7.65;;
4577;SDS011;2301;47.354;8.528;2023-02-28T10:18:08;13.15;;;8.25;;
4577;SDS011;2301;47.354;8.528;2023-02-28T10:20:40;12.68;;;7.95;;
4577;SDS011;2301;47.354;8.528;2023-02-28T10:23:11;13.55;;;7.35;;
4577;SDS011;2301;47.354;8.528;2023-02-28T10:25:44;13.25;;;8.88;;
4577;SDS011;2301;47.354;8.528;2023-02-28T10:28:16;11.13;;;8.27;;
4577;SDS011;2301;47.354;8.528;2023-02-28T10:30:45;9.48;;;7.45;;
4577;SDS011;2301;47.354;8.528;2023-02-28T10:33:19;11.68;;;8.15;;
4577;SDS011;2301;47.354;8.528;2023-02-28T10:35:51;10.30;;;7.63;;
4577;SDS011;2301;47.354;8.528;2023-02-28T10:38:20;10.35;;;7.97;;
4577;SDS011;2301;47.354;8.528;2023-02-28T10:40:49;11.05;;;7.88;;
4577;SDS011;2301;47.354;8.528;2023-02-28T10:43:18;22.77;;;8.88;;
4577;SDS011;2301;47.354;8.528;2023-02-28T10:45:53;10.32;;;7.70;;
4577;SDS011;2301;47.354;8.528;2023-02-28T10:48:30;9.80;;;7.15;;
4577;SDS011;2301;47.354;8.528;2023-02-28T10:51:00;8.85;;;6.90;;
4577;SDS011;2301;47.354;8.528;2023-02-28T10:53:30;10.38;;;8.02;;
4577;SDS011;2301;47.354;8.528;2023-02-28T10:56:01;13.82;;;7.75;;
4577;SDS011;2301;47.354;8.528;2023-02-28T10:58:30;15.27;;;8.48;;
4577;SDS011;2301;47.354;8.528;2023-02-28T11:01:12;13.02;;;8.98;;
4577;SDS011;2301;47.354;8.528;2023-02-28T11:03:41;13.15;;;8.40;;
4577;SDS011;2301;47.354;8.528;2023-02-28T11:06:12;14.68;;;8.95;;
4577;SDS011;2301;47.354;8.528;2023-02-28T11:08:46;12.95;;;8.43;;
4577;SDS011;2301;47.354;8.528;2023-02-28T11:11:14;13.10;;;8.57;;
4577;SDS011;2301;47.354;8.528;2023-02-28T11:13:43;12.90;;;8.02;;
4577;SDS011;2301;47.354;8.528;2023-02-28T11:16:12;13.18;;;8.02;;
4577;SDS011;2301;47.354;8.528;2023-02-28T11:18:41;11.30;;;8.50;;
4577;SDS011;2301;47.354;8.528;2023-02-28T11:21:18;13.02;;;8.00;;
4577;SDS011;2301;47.354;8.528;2023-02-28T11:23:49;11.85;;;7.55;;
4577;SDS011;2301;47.354;8.528;2023-02-28T11:26:38;11.18;;;7.38;;
4577;SDS011;2301;47.354;8.528;2023-02-28T11:29:16;12.70;;;8.68;;
4577;SDS011;2301;47.354;8.528;2023-02-28T11:34:42;11.00;;;7.68;;
4577;SDS011;2301;47.354;8.528;2023-02-28T11:37:13;10.55;;;7.55;;
4577;SDS011;2301;47.354;8.528;2023-02-28T11:39:43;12.70;;;8.80;;
4577;SDS011;2301;47.354;8.528;2023-02-28T11:42:23;10.75;;;7.97;;
4577;SDS011;2301;47.354;8.528;2023-02-28T11:45:26;10.77;;;7.97;;
4577;SDS011;2301;47.354;8.528;2023-02-28T11:48:09;10.45;;;7.68;;
4577;SDS011;2301;47.354;8.528;2023-02-28T11:50:46;12.18;;;7.68;;
4577;SDS011;2301;47.354;8.528;2023-02-28T11:53:24;9.52;;;7.05;;
4577;SDS011;2301;47.354;8.528;2023-02-28T11:56:11;12.93;;;8.30;;
4577;SDS011;2301;47.354;8.528;2023-02-28T11:58:47;19.80;;;8.50;;
4577;SDS011;2301;47.354;8.528;2023-02-28T12:01:27;15.10;;;8.98;;
4577;SDS011;2301;47.354;8.528;2023-02-28T12:04:12;11.23;;;7.70;;
4577;SDS011;2301;47.354;8.528;2023-02-28T12:06:49;11.95;;;8.00;;
4577;SDS011;2301;47.354;8.528;2023-02-28T12:09:34;11.45;;;7.75;;
4577;SDS011;2301;47.354;8.528;2023-02-28T12:12:12;12.00;;;7.45;;
4577;SDS011;2301;47.354;8.528;2023-02-28T12:15:02;13.80;;;8.75;;
4577;SDS011;2301;47.354;8.528;2023-02-28T12:17:44;11.43;;;7.45;;
4577;SDS011;2301;47.354;8.528;2023-02-28T12:20:24;12.45;;;8.40;;
4577;SDS011;2301;47.354;8.528;2023-02-28T12:23:01;11.43;;;8.40;;
4577;SDS011;2301;47.354;8.528;2023-02-28T12:25:45;16.27;;;8.55;;
4577;SDS011;2301;47.354;8.528;2023-02-28T12:28:20;10.10;;;7.80;;
4577;SDS011;2301;47.354;8.528;2023-02-28T12:30:53;11.73;;;7.90;;
4577;SDS011;2301;47.354;8.528;2023-02-28T12:33:24;11.43;;;8.57;;
4577;SDS011;2301;47.354;8.528;2023-02-28T12:35:58;14.05;;;8.68;;
4577;SDS011;2301;47.354;8.528;2023-02-28T12:38:31;13.10;;;8.80;;
4577;SDS011;2301;47.354;8.528;2023-02-28T12:41:08;11.65;;;8.10;;
4577;SDS011;2301;47.354;8.528;2023-02-28T12:43:40;12.73;;;7.45;;
4577;SDS011;2301;47.354;8.528;2023-02-28T12:46:12;8.32;;;7.10;;
4577;SDS011;2301;47.354;8.528;2023-02-28T12:48:46;13.05;;;8.60;;
4577;SDS011;2301;47.354;8.528;2023-02-28T12:51:15;11.73;;;8.23;;
4577;SDS011;2301;47.354;8.528;2023-02-28T12:53:49;13.82;;;8.65;;
4577;SDS011;2301;47.354;8.528;2023-02-28T12:56:29;14.15;;;9.27;;
4577;SDS011;2301;47.354;8.528;2023-02-28T12:59:03;11.70;;;8.10;;
4577;SDS011;2301;47.354;8.528;2023-02-28T13:01:42;12.45;;;8.45;;
4577;SDS011;2301;47.354;8.528;2023-02-28T13:04:32;12.13;;;8.27;;
4577;SDS011;2301;47.354;8.528;2023-02-28T13:07:24;10.98;;;7.97;;
4577;SDS011;2301;47.354;8.528;2023-02-28T13:10:07;11.07;;;8.13;;
4577;SDS011;2301;47.354;8.528;2023-02-28T13:12:37;12.32;;;8.80;;
4577;SDS011;2301;47.354;8.528;2023-02-28T13:15:16;20.67;;;9.25;;
4577;SDS011;2301;47.354;8.528;2023-02-28T13:17:49;13.20;;;8.63;;
4577;SDS011;2301;47.354;8.528;2023-02-28T13:20:18;12.68;;;8.18;;
4577;SDS011;2301;47.354;8.528;2023-02-28T13:22:47;10.55;;;8.13;;
4577;SDS011;2301;47.354;8.528;2023-02-28T13:31:24;11.63;;;8.63;;
4577;SDS011;2301;47.354;8.528;2023-02-28T13:34:05;9.88;;;7.72;;
4577;SDS011;2301;47.354;8.528;2023-02-28T13:36:40;12.82;;;9.15;;
4577;SDS011;2301;47.354;8.528;2023-02-28T13:42:34;23.95;;;8.95;;
4577;SDS011;2301;47.354;8.528;2023-02-28T13:45:22;11.85;;;9.10;;
4577;SDS011;2301;47.354;8.528;2023-02-28T13:47:53;11.57;;;8.20;;
4577;SDS011;2301;47.354;8.528;2023-02-28T13:50:33;11.15;;;8.27;;
4577;SDS011;2301;47.354;8.528;2023-02-28T13:56:23;11.45;;;8.38;;
4577;SDS011;2301;47.354;8.528;2023-02-28T13:58:59;11.55;;;8.48;;
4577;SDS011;2301;47.354;8.528;2023-02-28T14:01:52;14.70;;;9.18;;
4577;SDS011;2301;47.354;8.528;2023-02-28T14:07:27;12.50;;;8.65;;
4577;SDS011;2301;47.354;8.528;2023-02-28T14:09:59;10.75;;;8.88;;
4577;SDS011;2301;47.354;8.528;2023-02-28T14:12:52;12.38;;;9.52;;
4577;SDS011;2301;47.354;8.528;2023-02-28T14:15:49;12.63;;;9.13;;
4577;SDS011;2301;47.354;8.528;2023-02-28T14:18:24;16.60;;;9.63;;
4577;SDS011;2301;47.354;8.528;2023-02-28T14:20:57;11.23;;;7.88;;
4577;SDS011;2301;47.354;8.528;2023-02-28T14:23:36;13.68;;;9.43;;
4577;SDS011;2301;47.354;8.528;2023-02-28T14:26:26;14.68;;;9.73;;
4577;SDS011;2301;47.354;8.528;2023-02-28T14:29:06;11.52;;;8.85;;
4577;SDS011;2301;47.354;8.528;2023-02-28T14:31:53;16.73;;;9.57;;
4577;SDS011;2301;47.354;8.528;2023-02-28T14:34:34;11.77;;;8.90;;
4577;SDS011;2301;47.354;8.528;2023-02-28T14:37:08;15.27;;;9.40;;
4577;SDS011;2301;47.354;8.528;2023-02-28T14:39:41;12.10;;;9.43;;
4577;SDS011;2301;47.354;8.528;2023-02-28T14:44:53;12.00;;;9.27;;
4577;SDS011;2301;47.354;8.528;2023-02-28T14:47:27;13.70;;;9.48;;
4577;SDS011;2301;47.354;8.528;2023-02-28T14:49:57;12.50;;;9.40;;
4577;SDS011;2301;47.354;8.528;2023-02-28T14:52:26;14.95;;;8.95;;
4577;SDS011;2301;47.354;8.528;2023-02-28T14:54:57;13.57;;;9.27;;
4577;SDS011;2301;47.354;8.528;2023-02-28T14:57:26;16.95;;;9.85;;
4577;SDS011;2301;47.354;8.528;2023-02-28T14:59:58;12.50;;;9.90;;
4577;SDS011;2301;47.354;8.528;2023-02-28T15:02:29;14.05;;;10.35;;
4577;SDS011;2301;47.354;8.528;2023-02-28T15:04:57;12.20;;;8.63;;
4577;SDS011;2301;47.354;8.528;2023-02-28T15:07:28;12.55;;;9.20;;
4577;SDS011;2301;47.354;8.528;2023-02-28T15:10:11;14.63;;;9.73;;
4577;SDS011;2301;47.354;8.528;2023-02-28T15:12:45;12.70;;;9.05;;
4577;SDS011;2301;47.354;8.528;2023-02-28T15:15:17;12.43;;;9.40;;
4577;SDS011;2301;47.354;8.528;2023-02-28T15:17:48;14.13;;;9.38;;
4577;SDS011;2301;47.354;8.528;2023-02-28T15:20:16;16.10;;;9.93;;
4577;SDS011;2301;47.354;8.528;2023-02-28T15:22:45;17.85;;;10.35;;
4577;SDS011;2301;47.354;8.528;2023-02-28T15:25:17;15.48;;;10.23;;
4577;SDS011;2301;47.354;8.528;2023-02-28T15:27:47;13.82;;;9.65;;
4577;SDS011;2301;47.354;8.528;2023-02-28T15:30:17;13.10;;;10.20;;
4577;SDS011;2301;47.354;8.528;2023-02-28T15:32:45;15.05;;;10.10;;
4577;SDS011;2301;47.354;8.528;2023-02-28T15:35:31;16.75;;;10.68;;
4577;SDS011;2301;47.354;8.528;2023-02-28T15:38:01;16.58;;;10.07;;
4577;SDS011;2301;47.354;8.528;2023-02-28T15:40:31;14.77;;;10.32;;
4577;SDS011;2301;47.354;8.528;2023-02-28T15:43:06;23.60;;;10.80;;
4577;SDS011;2301;47.354;8.528;2023-02-28T15:45:40;17.63;;;10.57;;
4577;SDS011;2301;47.354;8.528;2023-02-28T15:48:20;15.48;;;11.23;;
4577;SDS011;2301;47.354;8.528;2023-02-28T15:50:51;16.05;;;10.27;;
4577;SDS011;2301;47.354;8.528;2023-02-28T15:53:22;20.48;;;11.20;;
4577;SDS011;2301;47.354;8.528;2023-02-28T15:55:52;17.80;;;11.68;;
4577;SDS011;2301;47.354;8.528;2023-02-28T15:58:24;17.38;;;11.45;;
4577;SDS011;2301;47.354;8.528;2023-02-28T16:01:04;15.93;;;10.38;;
4577;SDS011;2301;47.354;8.528;2023-02-28T16:03:44;21.90;;;11.88;;
4577;SDS011;2301;47.354;8.528;2023-02-28T16:09:10;15.98;;;10.93;;